Airfield :
LOGIN :

Register | Disclaimer

   EN    FR    IT 

 










Legend :    VFR   Marginal VFR   IFR   Intensive IFR   Very Intensive IFR
Visi :
Ceiling :
>= 8 km
>= 3000ft
5 to 8 km
1000 to 3000 ft
1500m to 5 km
500 to 1000 ft
800 to 1500m
200 to 500 ft
< 800m
< 200 ft
Symbols :   Thunderstorms  Fog  Heavy snow  Heavy precipitations  Wind > 20 kt
SIGMETs :     Misc.  Thunderstorms  Icing  Turbulence  Mountain Waves  Volcanic Ashes







- Airport Elevation : 333 ft


LIPL - Ghedi Brescia (Mil)

CURRENT METAR :
  • 210755Z 10002KT 3000 BR BKN042 15/14 Q1020 RMK BKN VIS MIN 3000 WIND THR31 13002KT WIND THR13 11002KT YLO

EXPIRED METARs :
  • 210655Z 32001KT 3000 BR FEW020 BKN040 13/13 Q1020 RMK BKN VIS MIN 3000 WIND THR31 24001KT WIND THR13 28001KT YLO
  • 210555Z 08002KT 2800 BR FEW040 SCT070 11/11 Q1020 RMK BKN VIS MIN 2800 WIND THR31 01002KT WIND THR13 00000KT YLO

TAF TAF LIPL
Valid from the 21 at 09:00 until the 21 at 18:00 UTC


210800Z 2109/2118 10003KT 5000 BR FEW070
BECMG 2113/2115 12013KT 8000 SCT040
No reported NOTAMs for that airfield.



MET'MAP, your aeronautical weather chart ! - Copyright ORBIFLY December 2007 - Disclaimer

ORBIFLY MET'MAP TEAM :

Programming & Development : Alexandra Zaïnal
Concept & Development : Baudouin d'Aumeries
Co-Development & Prog : Marc-Olivier Méhu
Technical & hardware support : Manuel Goepfert

Contact : metmap@orbifly.com




SOURCES & CREDITS :

   NOAA